createdAt,value
2018-04-19T00:01:05.755Z,15.20
2018-04-19T00:03:33.193Z,15.20
2018-04-19T00:06:00.633Z,15.20
2018-04-19T00:08:28.856Z,15.20
2018-04-19T00:10:56.328Z,15.20
2018-04-19T00:13:23.753Z,15.20
2018-04-19T00:15:51.188Z,15.20
2018-04-19T00:18:18.625Z,15.20
2018-04-19T00:20:46.856Z,15.20
2018-04-19T00:23:14.312Z,15.20
2018-04-19T00:25:41.765Z,15.20
2018-04-19T00:28:09.226Z,15.20
2018-04-19T00:30:36.672Z,15.20
2018-04-19T00:33:04.108Z,15.20
2018-04-19T00:35:31.591Z,15.20
2018-04-19T00:37:59.040Z,15.20
2018-04-19T00:40:26.488Z,15.20
2018-04-19T00:42:53.958Z,15.10
2018-04-19T00:45:21.399Z,15.20
2018-04-19T00:47:48.857Z,15.10
2018-04-19T00:50:16.328Z,15.20
2018-04-19T00:52:55.428Z,15.10
2018-04-19T00:55:22.898Z,15.10
2018-04-19T00:57:50.351Z,15.10
2018-04-19T01:00:17.807Z,15.10
2018-04-19T01:02:45.267Z,15.10
2018-04-19T01:05:12.704Z,15.10
2018-04-19T01:07:40.180Z,15.10
2018-04-19T01:10:07.631Z,15.10
2018-04-19T01:12:35.087Z,15.10
2018-04-19T01:15:02.582Z,15.10
2018-04-19T01:17:30.028Z,15.10
2018-04-19T01:19:57.490Z,15.10
2018-04-19T01:22:24.944Z,15.10
2018-04-19T01:24:52.402Z,15.10
2018-04-19T01:27:19.864Z,15.10
2018-04-19T01:29:47.348Z,15.10
2018-04-19T01:32:14.800Z,15.10
2018-04-19T01:34:43.005Z,15.10
2018-04-19T01:37:10.476Z,15.00
2018-04-19T01:39:37.923Z,15.10
2018-04-19T01:42:05.373Z,15.10
2018-04-19T01:44:32.848Z,15.10
2018-04-19T01:47:00.294Z,15.00
2018-04-19T01:49:27.737Z,15.00
2018-04-19T01:51:55.201Z,15.00
2018-04-19T01:54:22.643Z,15.00
2018-04-19T01:56:50.083Z,15.00
2018-04-19T01:59:18.315Z,14.90
2018-04-19T02:01:45.755Z,14.90
2018-04-19T02:04:13.194Z,14.90
2018-04-19T02:06:40.643Z,14.90
2018-04-19T02:09:08.094Z,14.90
2018-04-19T02:11:35.557Z,14.90
2018-04-19T02:14:03.039Z,14.90
2018-04-19T02:16:30.507Z,14.90
2018-04-19T02:18:57.966Z,14.80
2018-04-19T02:21:25.414Z,14.80
2018-04-19T02:23:52.865Z,14.80
2018-04-19T02:26:20.328Z,14.70
2018-04-19T02:28:47.776Z,14.70
2018-04-19T02:31:15.274Z,14.60
2018-04-19T02:33:42.707Z,14.50
2018-04-19T02:36:10.945Z,14.30
2018-04-19T02:38:38.369Z,14.30
2018-04-19T02:41:05.845Z,14.30
2018-04-19T02:43:33.301Z,14.20
2018-04-19T02:46:00.725Z,14.10
2018-04-19T02:48:28.945Z,14.00
2018-04-19T02:50:56.411Z,13.90
2018-04-19T02:53:23.871Z,13.90
2018-04-19T02:55:51.333Z,13.90
2018-04-19T02:58:18.809Z,13.80
2018-04-19T03:00:47.018Z,13.80
2018-04-19T03:03:15.284Z,13.80
2018-04-19T03:05:42.761Z,13.80
2018-04-19T03:08:10.220Z,13.80
2018-04-19T03:10:37.690Z,13.70
2018-04-19T03:13:05.175Z,13.70
2018-04-19T03:15:32.626Z,13.60
2018-04-19T03:18:00.072Z,13.50
2018-04-19T03:20:27.560Z,13.50
2018-04-19T03:22:55.763Z,13.30
2018-04-19T03:25:23.205Z,13.30
2018-04-19T03:27:50.673Z,13.30
2018-04-19T03:30:18.117Z,13.20
2018-04-19T03:32:45.569Z,13.10
2018-04-19T03:35:13.029Z,13.00
2018-04-19T03:37:40.464Z,12.90
2018-04-19T03:40:08.700Z,12.80
2018-04-19T03:42:36.147Z,12.70
2018-04-19T03:45:03.581Z,12.70
2018-04-19T03:47:31.063Z,12.60
2018-04-19T03:49:58.510Z,12.50
2018-04-19T03:52:25.955Z,12.50
2018-04-19T03:54:53.417Z,12.40
2018-04-19T03:57:20.865Z,12.30
2018-04-19T03:59:48.321Z,12.30
2018-04-19T04:02:15.790Z,12.30
2018-04-19T04:04:43.229Z,12.20
2018-04-19T04:07:10.702Z,12.20
2018-04-19T04:09:38.189Z,12.10
2018-04-19T04:12:05.633Z,12.10
2018-04-19T04:14:33.716Z,12.00
2018-04-19T04:17:13.666Z,11.90
2018-04-19T04:19:53.838Z,11.90
2018-04-19T04:22:33.949Z,11.80
2018-04-19T04:25:01.413Z,11.80
2018-04-19T04:27:28.848Z,11.80
2018-04-19T04:29:56.300Z,11.80
2018-04-19T04:32:23.787Z,11.70
2018-04-19T04:34:53.140Z,11.70
2018-04-19T04:37:24.387Z,11.70
2018-04-19T04:39:51.832Z,11.70
2018-04-19T04:42:19.282Z,11.70
2018-04-19T04:44:46.737Z,11.70
2018-04-19T04:47:14.193Z,11.70
2018-04-19T04:49:41.641Z,11.70
2018-04-19T04:52:09.117Z,11.70
2018-04-19T04:54:36.550Z,11.70
2018-04-19T04:57:03.988Z,11.70
2018-04-19T04:59:32.219Z,11.70
2018-04-19T05:01:59.676Z,11.70
2018-04-19T05:04:27.125Z,11.70
2018-04-19T05:06:54.565Z,11.70
2018-04-19T05:09:22.026Z,11.70
2018-04-19T05:11:49.464Z,11.70
2018-04-19T05:14:16.909Z,11.60
2018-04-19T05:16:44.381Z,11.70
2018-04-19T05:19:11.823Z,11.70
2018-04-19T05:21:39.309Z,11.60
2018-04-19T05:24:06.805Z,11.60
2018-04-19T05:26:34.244Z,11.60
2018-04-19T05:29:02.074Z,11.60
2018-04-19T05:31:29.530Z,11.60
2018-04-19T05:33:56.977Z,11.60
2018-04-19T05:36:25.233Z,11.60
2018-04-19T05:38:53.468Z,11.50
2018-04-19T05:41:20.920Z,11.50
2018-04-19T05:43:48.365Z,11.50
2018-04-19T05:46:15.822Z,11.50
2018-04-19T05:48:43.329Z,11.50
2018-04-19T05:51:11.536Z,11.40
2018-04-19T05:53:38.980Z,11.40
2018-04-19T05:56:06.448Z,11.40
2018-04-19T05:58:33.901Z,11.40
2018-04-19T06:01:01.343Z,11.40
2018-04-19T06:03:28.812Z,11.40
2018-04-19T06:05:56.261Z,11.50
2018-04-19T06:08:23.691Z,11.50
2018-04-19T06:10:52.130Z,11.60
2018-04-19T06:13:19.591Z,11.50
2018-04-19T06:15:47.026Z,11.60
2018-04-19T06:18:14.488Z,11.60
2018-04-19T06:20:41.924Z,11.70
2018-04-19T06:23:09.379Z,11.70
2018-04-19T06:25:36.845Z,11.80
2018-04-19T06:28:04.301Z,11.80
2018-04-19T06:30:31.756Z,11.90
2018-04-19T06:32:59.226Z,12.00
2018-04-19T06:35:26.680Z,12.10
2018-04-19T06:37:54.145Z,12.20
2018-04-19T06:40:21.586Z,12.20
2018-04-19T06:42:49.036Z,12.30
2018-04-19T06:45:16.508Z,12.40
2018-04-19T06:47:44.710Z,12.70
2018-04-19T06:50:12.920Z,12.80
2018-04-19T06:52:40.979Z,12.80
2018-04-19T06:55:08.413Z,12.90
2018-04-19T06:57:36.629Z,13.20
2018-04-19T07:00:04.115Z,13.10
2018-04-19T07:02:31.566Z,13.30
2018-04-19T07:04:59.016Z,13.40
2018-04-19T07:07:26.482Z,13.60
2018-04-19T07:09:53.930Z,13.70
2018-04-19T07:12:21.377Z,13.80
2018-04-19T07:14:48.845Z,13.90
2018-04-19T07:17:16.287Z,14.00
2018-04-19T07:19:43.780Z,14.10
2018-04-19T07:22:12.001Z,14.30
2018-04-19T07:24:39.457Z,14.30
2018-04-19T07:27:06.932Z,14.40
2018-04-19T07:29:34.377Z,14.50
2018-04-19T07:32:01.833Z,14.60
2018-04-19T07:34:29.301Z,14.70
2018-04-19T07:36:56.746Z,14.80
2018-04-19T07:39:24.193Z,14.90
2018-04-19T07:41:51.662Z,15.00
2018-04-19T07:44:19.869Z,15.30
2018-04-19T07:46:47.340Z,15.20
2018-04-19T07:49:15.557Z,15.50
2018-04-19T07:51:43.005Z,15.50
2018-04-19T07:54:10.470Z,15.70
2018-04-19T07:56:37.923Z,15.80
2018-04-19T07:59:05.375Z,15.90
2018-04-19T08:01:32.840Z,16.00
2018-04-19T08:04:00.284Z,16.10
2018-04-19T08:06:27.759Z,16.30
2018-04-19T08:08:55.222Z,16.30
2018-04-19T08:11:22.732Z,16.40
2018-04-19T08:13:50.148Z,16.50
2018-04-19T08:16:17.596Z,16.60
2018-04-19T08:18:46.052Z,16.80
2018-04-19T08:21:13.517Z,16.80
2018-04-19T08:23:40.972Z,16.90
2018-04-19T08:26:08.420Z,17.00
2018-04-19T08:28:35.884Z,17.10
2018-04-19T08:31:03.325Z,17.20
2018-04-19T08:33:30.817Z,17.40
2018-04-19T08:35:58.264Z,17.50
2018-04-19T08:38:25.711Z,17.70
2018-04-19T08:40:53.195Z,17.80
2018-04-19T08:43:20.644Z,17.90
2018-04-19T08:45:48.101Z,18.00
2018-04-19T08:48:15.546Z,18.10
2018-04-19T08:50:42.998Z,18.20
2018-04-19T08:53:10.457Z,18.30
2018-04-19T08:55:37.925Z,18.40
2018-04-19T08:58:05.380Z,18.60
2018-04-19T09:00:32.820Z,18.70
2018-04-19T09:03:00.297Z,18.70
2018-04-19T09:05:28.516Z,18.80
2018-04-19T09:07:55.989Z,18.80
2018-04-19T09:10:24.186Z,18.90
2018-04-19T09:12:51.635Z,18.90
2018-04-19T09:15:19.069Z,19.00
2018-04-19T09:17:46.527Z,19.00
2018-04-19T09:20:13.975Z,19.00
2018-04-19T09:22:41.422Z,19.10
2018-04-19T09:25:08.899Z,19.10
2018-04-19T09:27:36.352Z,19.10
2018-04-19T09:30:04.500Z,19.20
2018-04-19T09:32:31.990Z,19.30
2018-04-19T09:34:59.465Z,19.40
2018-04-19T09:37:26.921Z,19.50
2018-04-19T09:39:54.383Z,19.60
2018-04-19T09:42:21.820Z,19.70
2018-04-19T09:44:49.256Z,19.70
2018-04-19T09:47:17.487Z,19.90
2018-04-19T09:49:44.935Z,19.90
2018-04-19T09:52:13.158Z,20.10
2018-04-19T09:54:40.638Z,20.10
2018-04-19T09:57:08.084Z,20.20
2018-04-19T09:59:35.529Z,20.30
2018-04-19T10:02:03.772Z,20.40
2018-04-19T10:04:33.667Z,20.50
2018-04-19T10:07:01.884Z,20.70
2018-04-19T10:09:29.345Z,20.70
2018-04-19T10:11:56.797Z,20.80
2018-04-19T10:14:24.245Z,20.90
2018-04-19T10:16:51.708Z,21.10
2018-04-19T10:19:19.150Z,21.20
2018-04-19T10:21:46.592Z,21.30
2018-04-19T10:24:14.059Z,21.50
2018-04-19T10:26:41.531Z,21.60
2018-04-19T10:29:08.974Z,21.70
2018-04-19T10:31:36.423Z,21.80
2018-04-19T10:34:03.885Z,21.90
2018-04-19T10:36:31.330Z,22.00
2018-04-19T10:38:58.770Z,22.10
2018-04-19T10:41:26.238Z,22.20
2018-04-19T10:44:00.695Z,22.30
2018-04-19T10:46:29.051Z,22.30
2018-04-19T10:48:56.500Z,22.30
2018-04-19T10:51:23.939Z,22.40
2018-04-19T10:53:51.417Z,22.40
2018-04-19T10:56:18.853Z,22.50
2018-04-19T10:58:46.292Z,22.60
2018-04-19T11:01:14.532Z,22.70
2018-04-19T11:03:42.604Z,22.70
2018-04-19T11:06:10.054Z,22.80
2018-04-19T11:08:37.557Z,22.80
2018-04-19T11:11:04.960Z,22.80
2018-04-19T11:13:32.419Z,22.90
2018-04-19T11:15:59.915Z,22.90
2018-04-19T11:18:27.322Z,23.00
2018-04-19T11:20:54.774Z,23.20
2018-04-19T11:23:22.242Z,23.30
2018-04-19T11:25:49.696Z,23.30
2018-04-19T11:28:17.155Z,23.30
2018-04-19T11:30:44.613Z,23.40
2018-04-19T11:33:12.076Z,23.40
2018-04-19T11:35:39.517Z,23.50
2018-04-19T11:38:07.917Z,23.60
2018-04-19T11:40:35.385Z,23.60
2018-04-19T11:43:03.615Z,23.90
2018-04-19T11:45:31.064Z,23.80
2018-04-19T11:47:58.572Z,23.90
2018-04-19T11:50:26.907Z,24.10
2018-04-19T11:52:54.362Z,24.10
2018-04-19T11:55:21.844Z,24.10
2018-04-19T11:57:49.292Z,24.10
2018-04-19T12:00:16.737Z,24.10
2018-04-19T12:02:44.207Z,24.10
2018-04-19T12:05:11.700Z,24.20
2018-04-19T12:07:39.159Z,24.30
2018-04-19T12:10:07.368Z,24.30
2018-04-19T12:12:34.820Z,24.30
2018-04-19T12:15:02.274Z,24.40
2018-04-19T12:17:29.728Z,24.50
2018-04-19T12:19:57.181Z,24.50
2018-04-19T12:22:24.628Z,24.50
2018-04-19T12:24:52.102Z,24.60
2018-04-19T12:27:19.542Z,24.60
2018-04-19T12:29:46.994Z,24.60
2018-04-19T12:32:14.470Z,24.60
2018-04-19T12:34:41.908Z,24.80
2018-04-19T12:37:09.354Z,24.90
2018-04-19T12:39:36.805Z,25.00
2018-04-19T12:42:04.278Z,25.10
2018-04-19T12:44:31.729Z,25.20
2018-04-19T12:46:59.460Z,25.20
2018-04-19T12:49:27.701Z,25.20
2018-04-19T12:51:55.153Z,25.20
2018-04-19T12:54:22.614Z,25.30
2018-04-19T12:56:50.081Z,25.40
2018-04-19T12:59:17.518Z,25.50
2018-04-19T13:01:44.996Z,25.60
2018-04-19T13:04:12.461Z,25.50
2018-04-19T13:06:40.686Z,25.60
2018-04-19T13:09:08.137Z,25.60
2018-04-19T13:11:35.621Z,25.70
2018-04-19T13:14:03.055Z,25.70
2018-04-19T13:16:30.495Z,25.70
2018-04-19T13:18:57.968Z,25.70
2018-04-19T13:21:25.419Z,25.80
2018-04-19T13:23:52.869Z,25.90
2018-04-19T13:26:20.326Z,26.00
2018-04-19T13:28:47.767Z,26.00
2018-04-19T13:31:15.205Z,26.00
2018-04-19T13:33:42.672Z,26.00
2018-04-19T13:36:10.139Z,26.00
2018-04-19T13:38:37.578Z,26.00
2018-04-19T13:41:05.025Z,26.00
2018-04-19T13:43:33.246Z,26.10
2018-04-19T13:46:00.736Z,26.10
2018-04-19T13:48:28.123Z,26.20
2018-04-19T13:50:55.593Z,26.30
2018-04-19T13:53:23.032Z,26.30
2018-04-19T13:55:50.502Z,26.30
2018-04-19T13:58:17.940Z,26.40
2018-04-19T14:00:45.386Z,26.40
2018-04-19T14:03:13.610Z,26.40
2018-04-19T14:05:41.054Z,26.40
2018-04-19T14:08:08.487Z,26.50
2018-04-19T14:10:35.950Z,26.50
2018-04-19T14:13:03.395Z,26.50
2018-04-19T14:15:30.836Z,26.50
2018-04-19T14:17:59.072Z,26.40
2018-04-19T14:20:26.508Z,26.30
2018-04-19T14:22:53.952Z,26.40
2018-04-19T14:25:21.435Z,26.50
2018-04-19T14:27:48.861Z,26.50
2018-04-19T14:30:16.299Z,26.60
2018-04-19T14:32:43.771Z,26.80
2018-04-19T14:35:11.223Z,26.90
2018-04-19T14:37:38.684Z,27.00
2018-04-19T14:40:06.124Z,27.00
2018-04-19T14:42:33.568Z,27.10
2018-04-19T14:45:01.058Z,27.20
2018-04-19T14:47:28.501Z,27.30
2018-04-19T14:49:55.941Z,27.60
2018-04-19T14:52:23.417Z,28.10
2018-04-19T14:54:50.860Z,28.80
2018-04-19T14:57:18.300Z,30.70
2018-04-19T14:59:46.526Z,36.30
2018-04-19T15:02:14.736Z,38.90
2018-04-19T15:04:42.965Z,41.20
2018-04-19T15:07:10.427Z,41.00
2018-04-19T15:09:37.863Z,43.20
2018-04-19T15:12:05.326Z,44.90
2018-04-19T15:14:32.781Z,46.50
2018-04-19T15:17:00.309Z,47.70
2018-04-19T15:19:27.777Z,48.70
2018-04-19T15:21:55.238Z,49.40
2018-04-19T15:24:22.707Z,50.10
2018-04-19T15:26:50.151Z,50.70
2018-04-19T15:29:17.620Z,51.00
2018-04-19T15:31:45.136Z,51.50
2018-04-19T15:34:12.540Z,51.80
2018-04-19T15:36:40.024Z,52.30
2018-04-19T15:39:08.269Z,52.60
2018-04-19T15:41:35.798Z,52.60
2018-04-19T15:44:03.198Z,52.60
2018-04-19T15:46:30.649Z,52.70
2018-04-19T15:48:58.115Z,52.60
2018-04-19T15:51:25.561Z,52.60
2018-04-19T15:53:53.008Z,52.60
2018-04-19T15:56:20.478Z,52.80
2018-04-19T15:58:47.925Z,52.40
2018-04-19T16:01:15.373Z,52.30
2018-04-19T16:03:42.844Z,52.10
2018-04-19T16:06:10.282Z,51.90
2018-04-19T16:08:37.716Z,51.80
2018-04-19T16:11:05.189Z,51.60
2018-04-19T16:13:32.632Z,51.50
2018-04-19T16:16:00.101Z,51.40
2018-04-19T16:18:27.540Z,51.00
2018-04-19T16:20:54.981Z,50.80
2018-04-19T16:23:22.456Z,50.60
2018-04-19T16:25:49.892Z,50.40
2018-04-19T16:28:17.395Z,50.20
2018-04-19T16:30:44.816Z,49.90
2018-04-19T16:33:12.251Z,49.60
2018-04-19T16:35:39.688Z,49.00
2018-04-19T16:38:07.933Z,47.60
2018-04-19T16:40:35.378Z,47.60
2018-04-19T16:43:02.824Z,45.40
2018-04-19T16:45:30.313Z,42.90
2018-04-19T16:47:57.748Z,40.50
2018-04-19T16:50:25.188Z,38.50
2018-04-19T16:52:52.650Z,36.60
2018-04-19T16:55:20.093Z,35.00
2018-04-19T16:57:47.544Z,33.50
2018-04-19T17:00:15.000Z,32.20
2018-04-19T17:02:42.461Z,31.10
2018-04-19T17:05:09.909Z,30.10
2018-04-19T17:07:37.359Z,29.30
2018-04-19T17:10:04.819Z,28.60
2018-04-19T17:12:32.282Z,28.00
2018-04-19T17:14:59.725Z,27.40
2018-04-19T17:17:27.189Z,26.90
2018-04-19T17:19:54.628Z,26.50
2018-04-19T17:22:22.072Z,26.10
2018-04-19T17:24:49.557Z,25.80
2018-04-19T17:27:17.006Z,25.40
2018-04-19T17:29:44.440Z,25.10
2018-04-19T17:32:11.933Z,24.80
2018-04-19T17:34:39.365Z,24.60
2018-04-19T17:37:06.810Z,24.40
2018-04-19T17:39:34.281Z,24.20
2018-04-19T17:42:01.712Z,24.00
2018-04-19T17:44:29.929Z,23.70
2018-04-19T17:46:57.393Z,23.60
2018-04-19T17:49:24.857Z,23.50
2018-04-19T17:51:52.292Z,23.40
2018-04-19T17:54:19.764Z,23.20
2018-04-19T17:56:47.200Z,23.10
2018-04-19T17:59:14.655Z,22.90
2018-04-19T18:01:42.126Z,22.80
2018-04-19T18:04:09.575Z,22.70
2018-04-19T18:06:37.012Z,22.50
2018-04-19T18:09:04.509Z,22.40
2018-04-19T18:11:31.953Z,22.10
2018-04-19T18:13:59.397Z,22.00
2018-04-19T18:16:26.862Z,21.70
2018-04-19T18:18:54.529Z,21.50
2018-04-19T18:21:21.970Z,21.30
2018-04-19T18:23:49.473Z,21.20
2018-04-19T18:26:16.910Z,21.00
2018-04-19T18:28:44.368Z,20.80
2018-04-19T18:31:11.849Z,20.60
2018-04-19T18:33:40.055Z,20.20
2018-04-19T18:36:07.496Z,20.20
2018-04-19T18:38:34.988Z,20.00
2018-04-19T18:41:02.454Z,19.80
2018-04-19T18:43:29.893Z,19.70
2018-04-19T18:45:57.376Z,19.60
2018-04-19T18:48:24.840Z,19.40
2018-04-19T18:50:52.282Z,19.30
2018-04-19T18:53:19.760Z,19.10
2018-04-19T18:55:47.978Z,18.90
2018-04-19T18:58:15.427Z,18.90
2018-04-19T19:00:42.897Z,18.80
2018-04-19T19:03:10.342Z,18.70
2018-04-19T19:05:37.784Z,18.60
2018-04-19T19:08:05.272Z,18.50
2018-04-19T19:10:32.729Z,18.50
2018-04-19T19:13:00.187Z,18.40
2018-04-19T19:18:57.946Z,18.10
2018-04-19T19:21:25.384Z,18.10
2018-04-19T19:23:52.874Z,18.10
2018-04-19T19:26:21.069Z,18.00
2018-04-19T19:28:48.515Z,18.00
2018-04-19T19:31:15.965Z,17.90
2018-04-19T19:33:43.449Z,17.90
2018-04-19T19:36:10.904Z,17.80
2018-04-19T19:38:38.369Z,17.70
2018-04-19T19:41:06.593Z,17.60
2018-04-19T19:43:34.045Z,17.60
2018-04-19T19:46:01.527Z,17.60
2018-04-19T19:48:28.968Z,17.60
2018-04-19T19:50:56.408Z,17.60
2018-04-19T19:53:23.897Z,17.50
2018-04-19T19:55:51.345Z,17.50
2018-04-19T19:58:18.777Z,17.50
2018-04-19T20:00:46.255Z,17.50
2018-04-19T20:03:13.688Z,17.50
2018-04-19T20:05:41.177Z,17.50
2018-04-19T20:08:08.688Z,17.60
2018-04-19T20:10:36.130Z,17.60
2018-04-19T20:13:04.337Z,17.60
2018-04-19T20:15:31.805Z,17.60
2018-04-19T20:17:59.238Z,17.70
2018-04-19T20:20:26.721Z,17.70
2018-04-19T20:22:54.176Z,17.70
2018-04-19T20:25:21.625Z,17.70
2018-04-19T20:27:49.102Z,17.70
2018-04-19T20:30:16.569Z,17.70
2018-04-19T20:32:44.006Z,17.70
2018-04-19T20:35:11.483Z,17.70
2018-04-19T20:37:38.932Z,17.80
2018-04-19T20:40:06.360Z,17.80
2018-04-19T20:42:33.851Z,17.80
2018-04-19T20:45:01.292Z,17.80
2018-04-19T20:47:28.750Z,17.80
2018-04-19T20:49:56.237Z,17.90
2018-04-19T20:52:24.449Z,17.90
2018-04-19T20:54:51.901Z,17.90
2018-04-19T20:57:19.369Z,17.90
2018-04-19T20:59:46.818Z,17.90
2018-04-19T21:02:14.255Z,17.90
2018-04-19T21:04:42.511Z,17.90
2018-04-19T21:07:10.718Z,17.90
2018-04-19T21:09:38.159Z,17.80
2018-04-19T21:12:05.620Z,17.90
2018-04-19T21:14:33.067Z,17.80
2018-04-19T21:17:00.534Z,17.80
2018-04-19T21:19:27.971Z,17.80
2018-04-19T21:21:55.416Z,17.80
2018-04-19T21:24:22.904Z,17.80
2018-04-19T21:26:50.330Z,17.80
2018-04-19T21:29:17.784Z,17.80
2018-04-19T21:31:46.028Z,17.80
2018-04-19T21:34:13.474Z,17.70
2018-04-19T21:36:40.913Z,17.80
2018-04-19T21:39:08.429Z,17.80
2018-04-19T21:41:35.877Z,17.70
2018-04-19T21:44:03.327Z,17.70
2018-04-19T21:46:31.562Z,17.70
2018-04-19T21:48:59.000Z,17.60
2018-04-19T21:51:26.558Z,17.60
2018-04-19T21:53:54.016Z,17.60
2018-04-19T21:56:21.470Z,17.60
2018-04-19T21:58:48.938Z,17.50
2018-04-19T22:01:17.190Z,17.50
2018-04-19T22:03:44.631Z,17.50
2018-04-19T22:06:12.088Z,17.50
2018-04-19T22:08:39.561Z,17.50
2018-04-19T22:11:07.773Z,17.40
2018-04-19T22:13:35.219Z,17.40
2018-04-19T22:16:02.698Z,17.40
2018-04-19T22:18:30.914Z,17.30
2018-04-19T22:20:58.352Z,17.30
2018-04-19T22:23:25.816Z,17.30
2018-04-19T22:25:53.264Z,17.30
2018-04-19T22:28:20.707Z,17.30
2018-04-19T22:30:48.933Z,17.20
2018-04-19T22:33:16.401Z,17.20
2018-04-19T22:35:43.840Z,17.20
2018-04-19T22:38:11.284Z,17.20
2018-04-19T22:40:38.764Z,17.10
2018-04-19T22:43:06.743Z,17.10
2018-04-19T22:45:34.193Z,17.10
2018-04-19T22:48:01.667Z,17.10
2018-04-19T22:50:29.119Z,17.00
2018-04-19T22:52:56.586Z,17.00
2018-04-19T22:55:24.828Z,16.90
2018-04-19T22:57:52.277Z,16.90
2018-04-19T23:00:19.708Z,16.90
2018-04-19T23:02:47.187Z,16.90
2018-04-19T23:05:14.636Z,16.80
2018-04-19T23:07:42.860Z,16.80
2018-04-19T23:10:11.078Z,16.80
2018-04-19T23:12:38.549Z,16.80
2018-04-19T23:15:06.013Z,16.80
2018-04-19T23:17:33.532Z,16.80
2018-04-19T23:20:00.945Z,16.80
2018-04-19T23:22:34.187Z,16.70
2018-04-19T23:25:01.639Z,16.70
2018-04-19T23:27:29.100Z,16.70
2018-04-19T23:29:56.555Z,16.70
2018-04-19T23:32:24.026Z,16.70
2018-04-19T23:34:51.493Z,16.60
2018-04-19T23:37:18.938Z,16.60
2018-04-19T23:39:46.409Z,16.60
2018-04-19T23:42:13.923Z,16.60
2018-04-19T23:44:41.390Z,16.60
2018-04-19T23:47:08.876Z,16.60
2018-04-19T23:49:36.321Z,16.60
2018-04-19T23:52:03.787Z,16.60
2018-04-19T23:54:31.240Z,16.60
2018-04-19T23:56:58.713Z,16.60
2018-04-19T23:59:26.153Z,16.60
